sensor_id;sensor_type;location;lat;lon;timestamp;P1;durP1;ratioP1;P2;durP2;ratioP2
70026;SDS011;57506;50.092;15.804;2022-10-16T00:00:31;40.70;;;22.00;;
70026;SDS011;57506;50.092;15.804;2022-10-16T00:02:57;39.73;;;21.20;;
70026;SDS011;57506;50.092;15.804;2022-10-16T00:05:23;39.90;;;20.70;;
70026;SDS011;57506;50.092;15.804;2022-10-16T00:07:49;39.57;;;22.07;;
70026;SDS011;57506;50.092;15.804;2022-10-16T00:10:14;39.07;;;21.00;;
70026;SDS011;57506;50.092;15.804;2022-10-16T00:12:40;39.38;;;21.65;;
70026;SDS011;57506;50.092;15.804;2022-10-16T00:15:05;37.87;;;21.40;;
70026;SDS011;57506;50.092;15.804;2022-10-16T00:17:32;38.40;;;20.45;;
70026;SDS011;57506;50.092;15.804;2022-10-16T00:19:57;38.13;;;20.53;;
70026;SDS011;57506;50.092;15.804;2022-10-16T00:22:23;36.35;;;20.27;;
70026;SDS011;57506;50.092;15.804;2022-10-16T00:24:48;34.03;;;19.37;;
70026;SDS011;57506;50.092;15.804;2022-10-16T00:27:14;35.70;;;21.05;;
70026;SDS011;57506;50.092;15.804;2022-10-16T00:29:40;39.60;;;21.90;;
70026;SDS011;57506;50.092;15.804;2022-10-16T00:32:05;38.85;;;21.55;;
70026;SDS011;57506;50.092;15.804;2022-10-16T00:34:31;33.97;;;19.73;;
70026;SDS011;57506;50.092;15.804;2022-10-16T00:36:56;35.17;;;20.57;;
70026;SDS011;57506;50.092;15.804;2022-10-16T00:39:22;31.23;;;18.23;;
70026;SDS011;57506;50.092;15.804;2022-10-16T00:41:47;34.33;;;18.98;;
70026;SDS011;57506;50.092;15.804;2022-10-16T00:47:07;32.45;;;19.25;;
70026;SDS011;57506;50.092;15.804;2022-10-16T00:49:39;33.50;;;19.08;;
70026;SDS011;57506;50.092;15.804;2022-10-16T00:52:04;34.30;;;17.97;;
70026;SDS011;57506;50.092;15.804;2022-10-16T00:54:31;29.60;;;17.80;;
70026;SDS011;57506;50.092;15.804;2022-10-16T00:57:00;27.33;;;17.05;;
70026;SDS011;57506;50.092;15.804;2022-10-16T00:59:38;30.07;;;17.77;;
70026;SDS011;57506;50.092;15.804;2022-10-16T01:02:07;27.67;;;17.05;;
70026;SDS011;57506;50.092;15.804;2022-10-16T01:04:48;27.05;;;16.98;;
70026;SDS011;57506;50.092;15.804;2022-10-16T01:15:29;26.00;;;16.63;;
70026;SDS011;57506;50.092;15.804;2022-10-16T01:18:06;25.45;;;16.85;;
70026;SDS011;57506;50.092;15.804;2022-10-16T01:20:42;30.52;;;17.65;;
70026;SDS011;57506;50.092;15.804;2022-10-16T01:26:03;33.10;;;18.27;;
70026;SDS011;57506;50.092;15.804;2022-10-16T01:31:18;30.77;;;18.88;;
70026;SDS011;57506;50.092;15.804;2022-10-16T01:33:48;30.67;;;19.30;;
70026;SDS011;57506;50.092;15.804;2022-10-16T01:36:23;38.15;;;20.38;;
70026;SDS011;57506;50.092;15.804;2022-10-16T01:38:55;32.13;;;19.93;;
70026;SDS011;57506;50.092;15.804;2022-10-16T01:41:33;32.83;;;20.13;;
70026;SDS011;57506;50.092;15.804;2022-10-16T01:44:14;33.85;;;20.45;;
70026;SDS011;57506;50.092;15.804;2022-10-16T01:46:53;34.17;;;20.35;;
70026;SDS011;57506;50.092;15.804;2022-10-16T01:49:20;36.95;;;19.90;;
70026;SDS011;57506;50.092;15.804;2022-10-16T01:51:48;35.13;;;20.87;;
70026;SDS011;57506;50.092;15.804;2022-10-16T01:54:18;35.05;;;20.13;;
70026;SDS011;57506;50.092;15.804;2022-10-16T01:56:46;38.95;;;23.13;;
70026;SDS011;57506;50.092;15.804;2022-10-16T01:59:15;39.78;;;21.73;;
70026;SDS011;57506;50.092;15.804;2022-10-16T02:01:48;39.75;;;22.45;;
70026;SDS011;57506;50.092;15.804;2022-10-16T02:04:22;43.63;;;22.73;;
70026;SDS011;57506;50.092;15.804;2022-10-16T02:06:52;42.10;;;24.00;;
70026;SDS011;57506;50.092;15.804;2022-10-16T02:09:19;41.70;;;22.65;;
70026;SDS011;57506;50.092;15.804;2022-10-16T02:11:44;41.30;;;23.88;;
70026;SDS011;57506;50.092;15.804;2022-10-16T02:14:10;40.93;;;23.50;;
70026;SDS011;57506;50.092;15.804;2022-10-16T02:16:37;41.83;;;23.97;;
70026;SDS011;57506;50.092;15.804;2022-10-16T02:19:05;43.50;;;23.65;;
70026;SDS011;57506;50.092;15.804;2022-10-16T02:26:42;42.92;;;22.92;;
70026;SDS011;57506;50.092;15.804;2022-10-16T02:29:13;43.57;;;23.53;;
70026;SDS011;57506;50.092;15.804;2022-10-16T02:31:44;39.90;;;22.05;;
70026;SDS011;57506;50.092;15.804;2022-10-16T02:34:14;40.72;;;23.25;;
70026;SDS011;57506;50.092;15.804;2022-10-16T02:36:41;37.00;;;21.77;;
70026;SDS011;57506;50.092;15.804;2022-10-16T02:39:09;39.53;;;21.50;;
70026;SDS011;57506;50.092;15.804;2022-10-16T02:41:36;36.20;;;20.37;;
70026;SDS011;57506;50.092;15.804;2022-10-16T02:44:02;34.65;;;21.33;;
70026;SDS011;57506;50.092;15.804;2022-10-16T02:46:27;34.37;;;20.80;;
70026;SDS011;57506;50.092;15.804;2022-10-16T02:48:53;38.55;;;21.77;;
70026;SDS011;57506;50.092;15.804;2022-10-16T02:51:18;40.10;;;21.37;;
70026;SDS011;57506;50.092;15.804;2022-10-16T02:53:44;36.30;;;21.37;;
70026;SDS011;57506;50.092;15.804;2022-10-16T02:56:09;39.00;;;21.60;;
70026;SDS011;57506;50.092;15.804;2022-10-16T02:58:35;37.87;;;22.00;;
70026;SDS011;57506;50.092;15.804;2022-10-16T03:01:00;37.47;;;22.43;;
70026;SDS011;57506;50.092;15.804;2022-10-16T03:03:26;46.63;;;23.73;;
70026;SDS011;57506;50.092;15.804;2022-10-16T03:05:52;41.10;;;22.07;;
70026;SDS011;57506;50.092;15.804;2022-10-16T03:08:17;41.03;;;23.40;;
70026;SDS011;57506;50.092;15.804;2022-10-16T03:10:48;43.03;;;23.53;;
70026;SDS011;57506;50.092;15.804;2022-10-16T03:13:13;37.25;;;21.10;;
70026;SDS011;57506;50.092;15.804;2022-10-16T03:15:39;45.33;;;23.47;;
70026;SDS011;57506;50.092;15.804;2022-10-16T03:18:04;37.77;;;22.33;;
70026;SDS011;57506;50.092;15.804;2022-10-16T03:20:30;41.03;;;22.10;;
70026;SDS011;57506;50.092;15.804;2022-10-16T03:22:55;37.67;;;22.00;;
70026;SDS011;57506;50.092;15.804;2022-10-16T03:25:21;37.47;;;21.67;;
70026;SDS011;57506;50.092;15.804;2022-10-16T03:27:46;36.03;;;21.98;;
70026;SDS011;57506;50.092;15.804;2022-10-16T03:30:12;34.03;;;20.63;;
70026;SDS011;57506;50.092;15.804;2022-10-16T03:32:37;34.50;;;20.50;;
70026;SDS011;57506;50.092;15.804;2022-10-16T03:35:03;33.30;;;19.73;;
70026;SDS011;57506;50.092;15.804;2022-10-16T03:37:29;32.47;;;18.43;;
70026;SDS011;57506;50.092;15.804;2022-10-16T03:39:54;33.03;;;19.47;;
70026;SDS011;57506;50.092;15.804;2022-10-16T03:42:20;30.58;;;20.10;;
70026;SDS011;57506;50.092;15.804;2022-10-16T03:44:45;33.70;;;20.53;;
70026;SDS011;57506;50.092;15.804;2022-10-16T03:47:11;33.63;;;20.70;;
70026;SDS011;57506;50.092;15.804;2022-10-16T03:49:36;32.58;;;19.08;;
70026;SDS011;57506;50.092;15.804;2022-10-16T03:52:02;33.23;;;19.03;;
70026;SDS011;57506;50.092;15.804;2022-10-16T03:54:27;34.87;;;20.07;;
70026;SDS011;57506;50.092;15.804;2022-10-16T03:56:53;36.35;;;20.23;;
70026;SDS011;57506;50.092;15.804;2022-10-16T03:59:18;33.60;;;20.03;;
70026;SDS011;57506;50.092;15.804;2022-10-16T04:01:44;32.70;;;20.30;;
70026;SDS011;57506;50.092;15.804;2022-10-16T04:04:09;34.07;;;19.80;;
70026;SDS011;57506;50.092;15.804;2022-10-16T04:06:34;35.77;;;19.87;;
70026;SDS011;57506;50.092;15.804;2022-10-16T04:09:00;36.80;;;21.20;;
70026;SDS011;57506;50.092;15.804;2022-10-16T04:11:25;35.63;;;21.00;;
70026;SDS011;57506;50.092;15.804;2022-10-16T04:13:51;34.30;;;21.13;;
70026;SDS011;57506;50.092;15.804;2022-10-16T04:16:17;34.43;;;20.70;;
70026;SDS011;57506;50.092;15.804;2022-10-16T04:18:42;34.15;;;20.73;;
70026;SDS011;57506;50.092;15.804;2022-10-16T04:21:08;36.70;;;21.07;;
70026;SDS011;57506;50.092;15.804;2022-10-16T04:23:33;37.40;;;21.83;;
70026;SDS011;57506;50.092;15.804;2022-10-16T04:25:59;33.70;;;20.55;;
70026;SDS011;57506;50.092;15.804;2022-10-16T04:28:25;34.87;;;20.43;;
70026;SDS011;57506;50.092;15.804;2022-10-16T04:30:51;34.35;;;19.05;;
70026;SDS011;57506;50.092;15.804;2022-10-16T04:33:17;38.33;;;20.07;;
70026;SDS011;57506;50.092;15.804;2022-10-16T04:35:42;32.83;;;19.27;;
70026;SDS011;57506;50.092;15.804;2022-10-16T04:38:08;31.47;;;19.23;;
70026;SDS011;57506;50.092;15.804;2022-10-16T04:40:33;30.97;;;19.23;;
70026;SDS011;57506;50.092;15.804;2022-10-16T04:43:01;31.90;;;18.95;;
70026;SDS011;57506;50.092;15.804;2022-10-16T04:45:28;29.70;;;18.95;;
70026;SDS011;57506;50.092;15.804;2022-10-16T04:47:56;28.33;;;18.40;;
70026;SDS011;57506;50.092;15.804;2022-10-16T04:50:23;30.33;;;18.63;;
70026;SDS011;57506;50.092;15.804;2022-10-16T04:52:48;28.30;;;17.48;;
70026;SDS011;57506;50.092;15.804;2022-10-16T04:55:14;26.73;;;17.83;;
70026;SDS011;57506;50.092;15.804;2022-10-16T04:57:40;28.70;;;18.07;;
70026;SDS011;57506;50.092;15.804;2022-10-16T05:00:06;27.10;;;17.98;;
70026;SDS011;57506;50.092;15.804;2022-10-16T05:02:33;28.38;;;18.20;;
70026;SDS011;57506;50.092;15.804;2022-10-16T05:04:58;35.95;;;18.42;;
70026;SDS011;57506;50.092;15.804;2022-10-16T05:07:24;45.60;;;22.73;;
70026;SDS011;57506;50.092;15.804;2022-10-16T05:09:49;30.87;;;17.73;;
70026;SDS011;57506;50.092;15.804;2022-10-16T05:12:15;26.40;;;16.42;;
70026;SDS011;57506;50.092;15.804;2022-10-16T05:14:40;26.20;;;16.33;;
70026;SDS011;57506;50.092;15.804;2022-10-16T05:17:06;22.67;;;14.80;;
70026;SDS011;57506;50.092;15.804;2022-10-16T05:19:31;22.67;;;15.45;;
70026;SDS011;57506;50.092;15.804;2022-10-16T05:21:57;24.50;;;14.03;;
70026;SDS011;57506;50.092;15.804;2022-10-16T05:24:22;21.97;;;14.67;;
70026;SDS011;57506;50.092;15.804;2022-10-16T05:26:49;21.05;;;13.82;;
70026;SDS011;57506;50.092;15.804;2022-10-16T05:29:14;21.90;;;13.93;;
70026;SDS011;57506;50.092;15.804;2022-10-16T05:31:40;20.30;;;13.27;;
70026;SDS011;57506;50.092;15.804;2022-10-16T05:34:06;18.63;;;12.30;;
70026;SDS011;57506;50.092;15.804;2022-10-16T05:36:31;17.83;;;12.70;;
70026;SDS011;57506;50.092;15.804;2022-10-16T05:38:57;17.97;;;12.50;;
70026;SDS011;57506;50.092;15.804;2022-10-16T05:41:22;17.80;;;12.43;;
70026;SDS011;57506;50.092;15.804;2022-10-16T05:43:50;16.90;;;11.05;;
70026;SDS011;57506;50.092;15.804;2022-10-16T05:46:16;16.50;;;11.20;;
70026;SDS011;57506;50.092;15.804;2022-10-16T05:48:42;15.50;;;10.98;;
70026;SDS011;57506;50.092;15.804;2022-10-16T05:51:09;18.20;;;11.80;;
70026;SDS011;57506;50.092;15.804;2022-10-16T05:53:37;15.75;;;11.38;;
70026;SDS011;57506;50.092;15.804;2022-10-16T05:56:04;19.73;;;12.07;;
70026;SDS011;57506;50.092;15.804;2022-10-16T05:58:32;16.97;;;12.03;;
70026;SDS011;57506;50.092;15.804;2022-10-16T06:01:02;16.83;;;11.82;;
70026;SDS011;57506;50.092;15.804;2022-10-16T06:03:30;17.02;;;11.20;;
70026;SDS011;57506;50.092;15.804;2022-10-16T06:05:56;18.73;;;12.13;;
70026;SDS011;57506;50.092;15.804;2022-10-16T06:08:22;17.77;;;12.50;;
70026;SDS011;57506;50.092;15.804;2022-10-16T06:10:48;17.95;;;12.63;;
70026;SDS011;57506;50.092;15.804;2022-10-16T06:13:24;17.92;;;11.77;;
70026;SDS011;57506;50.092;15.804;2022-10-16T06:15:50;16.53;;;11.50;;
70026;SDS011;57506;50.092;15.804;2022-10-16T06:18:16;17.87;;;12.07;;
70026;SDS011;57506;50.092;15.804;2022-10-16T06:20:41;15.35;;;11.68;;
70026;SDS011;57506;50.092;15.804;2022-10-16T06:23:07;18.27;;;11.57;;
70026;SDS011;57506;50.092;15.804;2022-10-16T06:25:32;19.73;;;11.70;;
70026;SDS011;57506;50.092;15.804;2022-10-16T06:27:58;15.30;;;10.65;;
70026;SDS011;57506;50.092;15.804;2022-10-16T06:30:23;16.17;;;10.77;;
70026;SDS011;57506;50.092;15.804;2022-10-16T06:32:49;15.13;;;9.87;;
70026;SDS011;57506;50.092;15.804;2022-10-16T06:35:14;14.60;;;10.48;;
70026;SDS011;57506;50.092;15.804;2022-10-16T06:37:40;16.33;;;10.73;;
70026;SDS011;57506;50.092;15.804;2022-10-16T06:40:06;16.60;;;11.88;;
70026;SDS011;57506;50.092;15.804;2022-10-16T06:42:31;21.17;;;12.80;;
70026;SDS011;57506;50.092;15.804;2022-10-16T06:44:57;19.60;;;12.85;;
70026;SDS011;57506;50.092;15.804;2022-10-16T06:47:22;19.43;;;12.83;;
70026;SDS011;57506;50.092;15.804;2022-10-16T06:49:48;19.17;;;12.60;;
70026;SDS011;57506;50.092;15.804;2022-10-16T06:52:14;18.23;;;12.17;;
70026;SDS011;57506;50.092;15.804;2022-10-16T06:54:39;18.53;;;12.50;;
70026;SDS011;57506;50.092;15.804;2022-10-16T06:57:05;22.13;;;12.88;;
70026;SDS011;57506;50.092;15.804;2022-10-16T06:59:30;22.47;;;13.00;;
70026;SDS011;57506;50.092;15.804;2022-10-16T07:01:56;20.43;;;13.03;;
70026;SDS011;57506;50.092;15.804;2022-10-16T07:04:22;17.55;;;12.48;;
70026;SDS011;57506;50.092;15.804;2022-10-16T07:06:47;19.80;;;13.83;;
70026;SDS011;57506;50.092;15.804;2022-10-16T07:09:13;18.03;;;12.73;;
70026;SDS011;57506;50.092;15.804;2022-10-16T07:11:39;20.43;;;12.73;;
70026;SDS011;57506;50.092;15.804;2022-10-16T07:14:09;18.17;;;11.55;;
70026;SDS011;57506;50.092;15.804;2022-10-16T07:16:40;15.37;;;11.67;;
70026;SDS011;57506;50.092;15.804;2022-10-16T07:19:05;17.92;;;12.10;;
70026;SDS011;57506;50.092;15.804;2022-10-16T07:21:32;15.27;;;10.90;;
70026;SDS011;57506;50.092;15.804;2022-10-16T07:24:02;16.92;;;12.00;;
70026;SDS011;57506;50.092;15.804;2022-10-16T07:26:29;19.38;;;12.15;;
70026;SDS011;57506;50.092;15.804;2022-10-16T07:28:57;16.80;;;11.68;;
70026;SDS011;57506;50.092;15.804;2022-10-16T07:31:23;16.83;;;11.40;;
70026;SDS011;57506;50.092;15.804;2022-10-16T07:33:49;16.77;;;9.93;;
70026;SDS011;57506;50.092;15.804;2022-10-16T07:36:16;18.20;;;10.50;;
70026;SDS011;57506;50.092;15.804;2022-10-16T07:38:43;17.27;;;11.23;;
70026;SDS011;57506;50.092;15.804;2022-10-16T07:41:13;16.40;;;10.43;;
70026;SDS011;57506;50.092;15.804;2022-10-16T07:43:40;17.30;;;10.13;;
70026;SDS011;57506;50.092;15.804;2022-10-16T07:46:11;17.10;;;11.30;;
70026;SDS011;57506;50.092;15.804;2022-10-16T07:48:36;16.07;;;10.87;;
70026;SDS011;57506;50.092;15.804;2022-10-16T07:51:03;17.50;;;11.68;;
70026;SDS011;57506;50.092;15.804;2022-10-16T07:53:31;20.57;;;11.53;;
70026;SDS011;57506;50.092;15.804;2022-10-16T07:56:01;18.33;;;12.10;;
70026;SDS011;57506;50.092;15.804;2022-10-16T07:58:29;17.85;;;11.82;;
70026;SDS011;57506;50.092;15.804;2022-10-16T08:00:55;15.80;;;11.15;;
70026;SDS011;57506;50.092;15.804;2022-10-16T08:03:22;15.13;;;10.05;;
70026;SDS011;57506;50.092;15.804;2022-10-16T08:05:49;16.03;;;11.33;;
70026;SDS011;57506;50.092;15.804;2022-10-16T08:08:18;17.45;;;11.05;;
70026;SDS011;57506;50.092;15.804;2022-10-16T08:10:44;16.30;;;10.70;;
70026;SDS011;57506;50.092;15.804;2022-10-16T08:13:10;19.58;;;11.52;;
70026;SDS011;57506;50.092;15.804;2022-10-16T08:15:35;18.00;;;11.43;;
70026;SDS011;57506;50.092;15.804;2022-10-16T08:18:02;16.70;;;12.50;;
70026;SDS011;57506;50.092;15.804;2022-10-16T08:20:30;18.20;;;11.90;;
70026;SDS011;57506;50.092;15.804;2022-10-16T08:22:56;19.90;;;11.25;;
70026;SDS011;57506;50.092;15.804;2022-10-16T08:25:22;17.30;;;11.02;;
70026;SDS011;57506;50.092;15.804;2022-10-16T08:27:49;15.88;;;10.00;;
70026;SDS011;57506;50.092;15.804;2022-10-16T08:30:16;15.67;;;10.70;;
70026;SDS011;57506;50.092;15.804;2022-10-16T08:32:42;16.15;;;10.55;;
70026;SDS011;57506;50.092;15.804;2022-10-16T08:35:11;14.85;;;10.52;;
70026;SDS011;57506;50.092;15.804;2022-10-16T08:37:38;16.57;;;10.37;;
70026;SDS011;57506;50.092;15.804;2022-10-16T08:40:05;20.58;;;9.75;;
70026;SDS011;57506;50.092;15.804;2022-10-16T08:48:39;15.30;;;10.25;;
70026;SDS011;57506;50.092;15.804;2022-10-16T08:51:18;13.77;;;9.57;;
70026;SDS011;57506;50.092;15.804;2022-10-16T08:53:56;13.73;;;9.30;;
70026;SDS011;57506;50.092;15.804;2022-10-16T08:56:25;14.35;;;9.23;;
70026;SDS011;57506;50.092;15.804;2022-10-16T08:58:51;13.40;;;9.40;;
70026;SDS011;57506;50.092;15.804;2022-10-16T09:01:18;14.85;;;9.27;;
70026;SDS011;57506;50.092;15.804;2022-10-16T09:14:55;13.30;;;8.60;;
70026;SDS011;57506;50.092;15.804;2022-10-16T09:22:27;13.10;;;7.37;;
70026;SDS011;57506;50.092;15.804;2022-10-16T09:24:54;12.50;;;8.02;;
70026;SDS011;57506;50.092;15.804;2022-10-16T09:27:26;11.55;;;7.22;;
70026;SDS011;57506;50.092;15.804;2022-10-16T09:29:51;15.30;;;7.50;;
70026;SDS011;57506;50.092;15.804;2022-10-16T09:32:18;10.73;;;7.28;;
70026;SDS011;57506;50.092;15.804;2022-10-16T09:34:47;14.40;;;7.28;;
70026;SDS011;57506;50.092;15.804;2022-10-16T09:37:17;10.70;;;7.20;;
70026;SDS011;57506;50.092;15.804;2022-10-16T09:39:49;11.45;;;7.50;;
70026;SDS011;57506;50.092;15.804;2022-10-16T09:42:30;11.05;;;7.30;;
70026;SDS011;57506;50.092;15.804;2022-10-16T09:44:59;12.07;;;7.40;;
70026;SDS011;57506;50.092;15.804;2022-10-16T09:47:25;13.10;;;7.37;;
70026;SDS011;57506;50.092;15.804;2022-10-16T09:49:54;12.45;;;8.02;;
70026;SDS011;57506;50.092;15.804;2022-10-16T09:52:22;12.23;;;7.68;;
70026;SDS011;57506;50.092;15.804;2022-10-16T09:54:52;13.07;;;7.05;;
70026;SDS011;57506;50.092;15.804;2022-10-16T09:57:19;12.10;;;7.40;;
70026;SDS011;57506;50.092;15.804;2022-10-16T09:59:46;11.27;;;7.25;;
70026;SDS011;57506;50.092;15.804;2022-10-16T10:02:14;14.32;;;7.65;;
70026;SDS011;57506;50.092;15.804;2022-10-16T10:04:44;15.07;;;9.00;;
70026;SDS011;57506;50.092;15.804;2022-10-16T10:07:18;13.52;;;7.78;;
70026;SDS011;57506;50.092;15.804;2022-10-16T10:10:21;12.17;;;7.57;;
70026;SDS011;57506;50.092;15.804;2022-10-16T10:12:49;9.05;;;5.70;;
70026;SDS011;57506;50.092;15.804;2022-10-16T10:15:15;9.07;;;6.65;;
70026;SDS011;57506;50.092;15.804;2022-10-16T10:17:53;8.90;;;6.35;;
70026;SDS011;57506;50.092;15.804;2022-10-16T10:20:33;10.83;;;6.60;;
70026;SDS011;57506;50.092;15.804;2022-10-16T10:23:22;11.07;;;6.85;;
70026;SDS011;57506;50.092;15.804;2022-10-16T10:25:50;9.18;;;6.43;;
70026;SDS011;57506;50.092;15.804;2022-10-16T10:31:03;8.90;;;5.68;;
70026;SDS011;57506;50.092;15.804;2022-10-16T10:39:07;9.82;;;6.22;;
70026;SDS011;57506;50.092;15.804;2022-10-16T10:55:36;10.25;;;7.22;;
70026;SDS011;57506;50.092;15.804;2022-10-16T11:06:05;9.30;;;6.10;;
70026;SDS011;57506;50.092;15.804;2022-10-16T11:08:36;13.05;;;6.50;;
70026;SDS011;57506;50.092;15.804;2022-10-16T11:11:16;9.82;;;6.55;;
70026;SDS011;57506;50.092;15.804;2022-10-16T11:16:52;10.15;;;6.68;;
70026;SDS011;57506;50.092;15.804;2022-10-16T11:22:05;9.35;;;6.00;;
70026;SDS011;57506;50.092;15.804;2022-10-16T11:27:27;13.80;;;6.70;;
70026;SDS011;57506;50.092;15.804;2022-10-16T11:30:08;10.25;;;6.18;;
70026;SDS011;57506;50.092;15.804;2022-10-16T11:33:02;12.03;;;5.90;;
70026;SDS011;57506;50.092;15.804;2022-10-16T11:38:58;12.00;;;6.30;;
70026;SDS011;57506;50.092;15.804;2022-10-16T11:44:25;12.00;;;6.10;;
70026;SDS011;57506;50.092;15.804;2022-10-16T11:47:13;13.33;;;7.73;;
70026;SDS011;57506;50.092;15.804;2022-10-16T11:49:42;14.52;;;8.98;;
70026;SDS011;57506;50.092;15.804;2022-10-16T11:52:20;17.67;;;11.00;;
70026;SDS011;57506;50.092;15.804;2022-10-16T11:55:01;16.02;;;11.35;;
70026;SDS011;57506;50.092;15.804;2022-10-16T11:57:43;11.45;;;8.02;;
70026;SDS011;57506;50.092;15.804;2022-10-16T12:00:23;15.83;;;9.93;;
70026;SDS011;57506;50.092;15.804;2022-10-16T12:08:27;10.40;;;6.95;;
70026;SDS011;57506;50.092;15.804;2022-10-16T12:10:54;8.95;;;6.00;;
70026;SDS011;57506;50.092;15.804;2022-10-16T12:13:33;10.60;;;7.27;;
70026;SDS011;57506;50.092;15.804;2022-10-16T12:18:36;12.70;;;7.53;;
70026;SDS011;57506;50.092;15.804;2022-10-16T12:21:02;11.18;;;7.30;;
70026;SDS011;57506;50.092;15.804;2022-10-16T12:23:32;13.77;;;6.80;;
70026;SDS011;57506;50.092;15.804;2022-10-16T12:26:01;10.40;;;6.43;;
70026;SDS011;57506;50.092;15.804;2022-10-16T12:28:28;9.65;;;5.65;;
70026;SDS011;57506;50.092;15.804;2022-10-16T12:31:00;9.25;;;5.47;;
70026;SDS011;57506;50.092;15.804;2022-10-16T12:33:32;11.63;;;6.17;;
70026;SDS011;57506;50.092;15.804;2022-10-16T12:35:59;12.13;;;5.88;;
70026;SDS011;57506;50.092;15.804;2022-10-16T12:38:33;8.75;;;5.10;;
70026;SDS011;57506;50.092;15.804;2022-10-16T12:41:05;9.60;;;5.82;;
70026;SDS011;57506;50.092;15.804;2022-10-16T12:46:20;10.07;;;5.57;;
70026;SDS011;57506;50.092;15.804;2022-10-16T12:48:48;8.70;;;4.97;;
70026;SDS011;57506;50.092;15.804;2022-10-16T12:51:32;7.65;;;5.20;;
70026;SDS011;57506;50.092;15.804;2022-10-16T12:54:04;9.07;;;5.00;;
70026;SDS011;57506;50.092;15.804;2022-10-16T12:57:04;8.65;;;5.13;;
70026;SDS011;57506;50.092;15.804;2022-10-16T13:00:06;8.60;;;5.43;;
70026;SDS011;57506;50.092;15.804;2022-10-16T13:05:30;9.70;;;6.68;;
70026;SDS011;57506;50.092;15.804;2022-10-16T13:08:29;10.50;;;5.70;;
70026;SDS011;57506;50.092;15.804;2022-10-16T13:16:50;7.32;;;5.00;;
70026;SDS011;57506;50.092;15.804;2022-10-16T13:25:13;9.50;;;5.88;;
70026;SDS011;57506;50.092;15.804;2022-10-16T13:28:03;10.80;;;6.70;;
70026;SDS011;57506;50.092;15.804;2022-10-16T13:30:33;13.63;;;7.25;;
70026;SDS011;57506;50.092;15.804;2022-10-16T13:33:14;11.70;;;8.02;;
70026;SDS011;57506;50.092;15.804;2022-10-16T13:35:48;12.68;;;7.82;;
70026;SDS011;57506;50.092;15.804;2022-10-16T13:38:20;13.32;;;8.40;;
70026;SDS011;57506;50.092;15.804;2022-10-16T13:40:55;10.63;;;7.00;;
70026;SDS011;57506;50.092;15.804;2022-10-16T13:43:28;11.80;;;7.05;;
70026;SDS011;57506;50.092;15.804;2022-10-16T13:45:59;11.95;;;7.15;;
70026;SDS011;57506;50.092;15.804;2022-10-16T13:48:27;14.65;;;7.35;;
70026;SDS011;57506;50.092;15.804;2022-10-16T13:51:00;14.15;;;8.05;;
70026;SDS011;57506;50.092;15.804;2022-10-16T13:53:37;13.60;;;7.87;;
70026;SDS011;57506;50.092;15.804;2022-10-16T13:56:04;12.70;;;8.13;;
70026;SDS011;57506;50.092;15.804;2022-10-16T13:58:31;12.23;;;8.20;;
70026;SDS011;57506;50.092;15.804;2022-10-16T14:00:58;12.95;;;7.45;;
70026;SDS011;57506;50.092;15.804;2022-10-16T14:03:26;11.27;;;7.40;;
70026;SDS011;57506;50.092;15.804;2022-10-16T14:05:54;12.87;;;8.50;;
70026;SDS011;57506;50.092;15.804;2022-10-16T14:08:24;13.63;;;8.35;;
70026;SDS011;57506;50.092;15.804;2022-10-16T14:11:10;12.52;;;8.15;;
70026;SDS011;57506;50.092;15.804;2022-10-16T14:13:37;12.10;;;7.47;;
70026;SDS011;57506;50.092;15.804;2022-10-16T14:16:05;12.63;;;7.85;;
70026;SDS011;57506;50.092;15.804;2022-10-16T14:18:34;12.93;;;8.07;;
70026;SDS011;57506;50.092;15.804;2022-10-16T14:21:03;17.63;;;7.82;;
70026;SDS011;57506;50.092;15.804;2022-10-16T14:23:31;18.30;;;10.68;;
70026;SDS011;57506;50.092;15.804;2022-10-16T14:28:38;19.05;;;11.52;;
70026;SDS011;57506;50.092;15.804;2022-10-16T14:31:25;20.37;;;11.80;;
70026;SDS011;57506;50.092;15.804;2022-10-16T14:33:51;22.85;;;11.35;;
70026;SDS011;57506;50.092;15.804;2022-10-16T14:36:16;22.42;;;12.32;;
70026;SDS011;57506;50.092;15.804;2022-10-16T14:39:00;19.47;;;11.97;;
70026;SDS011;57506;50.092;15.804;2022-10-16T14:41:30;20.48;;;11.85;;
70026;SDS011;57506;50.092;15.804;2022-10-16T14:43:58;19.30;;;11.50;;
70026;SDS011;57506;50.092;15.804;2022-10-16T14:46:28;17.48;;;11.52;;
70026;SDS011;57506;50.092;15.804;2022-10-16T14:49:00;17.38;;;11.70;;
70026;SDS011;57506;50.092;15.804;2022-10-16T14:51:29;18.43;;;12.20;;
70026;SDS011;57506;50.092;15.804;2022-10-16T14:53:55;19.83;;;13.35;;
70026;SDS011;57506;50.092;15.804;2022-10-16T14:56:21;21.27;;;12.83;;
70026;SDS011;57506;50.092;15.804;2022-10-16T14:58:50;19.90;;;12.97;;
70026;SDS011;57506;50.092;15.804;2022-10-16T15:01:17;21.20;;;14.30;;
70026;SDS011;57506;50.092;15.804;2022-10-16T15:03:43;24.15;;;16.55;;
70026;SDS011;57506;50.092;15.804;2022-10-16T15:06:12;25.85;;;18.08;;
70026;SDS011;57506;50.092;15.804;2022-10-16T15:08:39;27.80;;;18.50;;
70026;SDS011;57506;50.092;15.804;2022-10-16T15:11:07;29.92;;;19.17;;
70026;SDS011;57506;50.092;15.804;2022-10-16T15:13:38;28.45;;;19.95;;
70026;SDS011;57506;50.092;15.804;2022-10-16T15:16:04;34.70;;;21.07;;
70026;SDS011;57506;50.092;15.804;2022-10-16T15:18:35;30.65;;;19.80;;
70026;SDS011;57506;50.092;15.804;2022-10-16T15:21:01;35.13;;;22.52;;
70026;SDS011;57506;50.092;15.804;2022-10-16T15:23:26;31.83;;;21.70;;
70026;SDS011;57506;50.092;15.804;2022-10-16T15:25:53;32.73;;;23.07;;
70026;SDS011;57506;50.092;15.804;2022-10-16T15:28:20;33.88;;;22.92;;
70026;SDS011;57506;50.092;15.804;2022-10-16T15:30:49;35.88;;;23.38;;
70026;SDS011;57506;50.092;15.804;2022-10-16T15:33:19;34.97;;;23.00;;
70026;SDS011;57506;50.092;15.804;2022-10-16T15:35:48;33.73;;;23.10;;
70026;SDS011;57506;50.092;15.804;2022-10-16T15:38:15;37.50;;;22.52;;
70026;SDS011;57506;50.092;15.804;2022-10-16T15:40:41;41.35;;;23.27;;
70026;SDS011;57506;50.092;15.804;2022-10-16T15:43:07;37.17;;;25.20;;
70026;SDS011;57506;50.092;15.804;2022-10-16T15:45:34;35.83;;;23.75;;
70026;SDS011;57506;50.092;15.804;2022-10-16T15:47:59;37.40;;;25.63;;
70026;SDS011;57506;50.092;15.804;2022-10-16T15:50:25;40.37;;;24.50;;
70026;SDS011;57506;50.092;15.804;2022-10-16T15:52:51;39.30;;;25.75;;
70026;SDS011;57506;50.092;15.804;2022-10-16T15:55:17;40.13;;;25.35;;
70026;SDS011;57506;50.092;15.804;2022-10-16T15:57:44;37.00;;;25.13;;
70026;SDS011;57506;50.092;15.804;2022-10-16T16:00:11;40.35;;;25.65;;
70026;SDS011;57506;50.092;15.804;2022-10-16T16:02:39;40.75;;;25.52;;
70026;SDS011;57506;50.092;15.804;2022-10-16T16:05:06;36.95;;;23.58;;
70026;SDS011;57506;50.092;15.804;2022-10-16T16:07:33;31.83;;;18.83;;
70026;SDS011;57506;50.092;15.804;2022-10-16T16:10:00;26.80;;;17.60;;
70026;SDS011;57506;50.092;15.804;2022-10-16T16:12:26;25.25;;;16.38;;
70026;SDS011;57506;50.092;15.804;2022-10-16T16:14:52;24.45;;;15.75;;
70026;SDS011;57506;50.092;15.804;2022-10-16T16:17:18;24.40;;;15.63;;
70026;SDS011;57506;50.092;15.804;2022-10-16T16:19:45;25.13;;;15.83;;